Time;durP1;ratioP1;P1;durP2;ratioP2;P2;SDS_P1;SDS_P2;PMS_P1;PMS_P2;Temp;Humidity;BMP_temperature;BMP_pressure;BME280_temperature;BME280_humidity;BME280_pressure;Samples;Min_cycle;Max_cycle;Signal;HPM_P1;HPM_P2
2023/07/11 00:00:52;;;;;;;16.17;4.63;;;;;;;18.48;100.00;101365.97;4932413;29;20083;-74
2023/07/11 00:03:19;;;;;;;12.95;4.70;;;;;;;18.43;100.00;101358.88;4931894;29;20048;-73
2023/07/11 00:06:04;;;;;;;17.63;4.82;;;;;;;18.44;100.00;101366.09;4932886;29;20466;-73
2023/07/11 00:08:31;;;;;;;10.85;4.78;;;;;;;18.42;100.00;101356.53;4927863;29;20073;-74
2023/07/11 00:10:58;;;;;;;16.15;5.05;;;;;;;18.38;100.00;101353.84;4932661;29;20058;-73
2023/07/11 00:13:25;;;;;;;9.25;4.03;;;;;;;18.35;100.00;101351.16;4931309;29;20061;-73
2023/07/11 00:16:04;;;;;;;10.70;4.15;;;;;;;18.29;100.00;101355.81;4929502;29;20098;-73
2023/07/11 00:18:31;;;;;;;14.30;4.57;;;;;;;18.29;100.00;101347.38;4932458;29;20090;-73
2023/07/11 00:20:57;;;;;;;12.02;4.75;;;;;;;18.25;100.00;101341.06;4932502;29;20051;-75
2023/07/11 00:23:25;;;;;;;14.30;5.13;;;;;;;18.19;100.00;101338.03;4925727;29;20154;-73
2023/07/11 00:25:52;;;;;;;12.95;4.60;;;;;;;18.20;100.00;101336.00;4932455;29;20056;-74
2023/07/11 00:28:19;;;;;;;14.50;4.63;;;;;;;18.20;100.00;101333.19;4930745;29;20130;-74
2023/07/11 00:30:47;;;;;;;11.85;4.80;;;;;;;18.17;100.00;101336.91;4930357;29;20052;-74
2023/07/11 00:33:14;;;;;;;12.30;4.65;;;;;;;18.17;100.00;101334.09;4929871;29;20076;-74
2023/07/11 00:35:44;;;;;;;15.98;4.55;;;;;;;18.15;100.00;101336.56;4932442;29;20147;-74
2023/07/11 00:38:12;;;;;;;10.52;4.60;;;;;;;18.13;100.00;101333.44;4931599;29;20083;-74
2023/07/11 00:40:45;;;;;;;11.52;5.00;;;;;;;18.08;100.00;101325.56;4924743;29;20054;-74
2023/07/11 00:43:14;;;;;;;14.25;4.88;;;;;;;18.07;100.00;101326.81;4932506;29;20063;-74
2023/07/11 00:45:59;;;;;;;11.73;5.75;;;;;;;18.04;100.00;101325.72;4925652;29;20134;-74
2023/07/11 00:48:26;;;;;;;9.35;4.68;;;;;;;18.04;100.00;101320.09;4930762;29;20082;-73
2023/07/11 00:50:55;;;;;;;12.10;5.03;;;;;;;18.03;100.00;101326.16;4931593;29;20055;-74
2023/07/11 00:53:24;;;;;;;11.23;4.40;;;;;;;17.98;100.00;101313.44;4931236;29;20134;-73
2023/07/11 00:55:51;;;;;;;13.70;5.05;;;;;;;17.95;100.00;101305.16;4931418;29;20557;-74
2023/07/11 00:58:20;;;;;;;14.43;6.32;;;;;;;17.95;100.00;101307.97;4931446;29;20107;-73
2023/07/11 01:00:48;;;;;;;11.90;4.55;;;;;;;17.90;100.00;101308.50;4930421;29;20051;-76
2023/07/11 01:03:15;;;;;;;10.23;4.70;;;;;;;17.83;100.00;101292.66;4937526;29;20138;-75
2023/07/11 01:05:41;;;;;;;17.20;5.10;;;;;;;17.83;100.00;101303.91;4930013;29;20143;-74
2023/07/11 01:08:10;;;;;;;12.18;5.45;;;;;;;17.83;100.00;101300.28;4930008;29;20126;-72
2023/07/11 01:10:39;;;;;;;12.35;4.95;;;;;;;17.77;100.00;101297.28;4923936;29;20075;-74
2023/07/11 01:13:06;;;;;;;14.10;4.88;;;;;;;17.74;100.00;101294.56;4946154;28;20051;-74
2023/07/11 01:15:32;;;;;;;13.07;4.85;;;;;;;17.70;100.00;101299.53;4931731;29;20465;-73
2023/07/11 01:17:59;;;;;;;11.77;5.18;;;;;;;17.68;100.00;101296.41;4930253;29;20159;-72
2023/07/11 01:20:25;;;;;;;13.27;4.93;;;;;;;17.67;100.00;101301.22;4930151;29;20114;-74
2023/07/11 01:22:52;;;;;;;15.20;5.28;;;;;;;17.66;100.00;101299.66;4930796;29;20485;-73
2023/07/11 01:25:19;;;;;;;11.25;5.10;;;;;;;17.62;100.00;101298.22;4931371;29;20052;-73
2023/07/11 01:27:47;;;;;;;15.00;5.18;;;;;;;17.60;100.00;101300.66;4930197;29;20078;-73
2023/07/11 01:30:18;;;;;;;11.98;5.38;;;;;;;17.60;100.00;101309.09;4931151;29;20056;-75
2023/07/11 01:32:45;;;;;;;11.70;5.22;;;;;;;17.56;100.00;101294.38;4927320;29;20058;-74
2023/07/11 01:35:12;;;;;;;12.23;5.78;;;;;;;17.53;100.00;101289.66;4927995;29;20732;-75
2023/07/11 01:37:38;;;;;;;11.98;5.47;;;;;;;17.50;100.00;101285.72;4930307;29;20088;-73
2023/07/11 01:40:06;;;;;;;14.98;5.28;;;;;;;17.52;100.00;101286.06;4930750;29;20091;-73
2023/07/11 01:42:34;;;;;;;11.73;5.40;;;;;;;17.47;100.00;101285.84;4926022;29;20052;-74
2023/07/11 01:45:00;;;;;;;13.73;5.72;;;;;;;17.45;100.00;101282.72;4928830;29;20111;-74
2023/07/11 01:47:27;;;;;;;13.20;5.32;;;;;;;17.42;100.00;101290.03;4930699;29;20063;-73
2023/07/11 01:49:54;;;;;;;12.75;5.53;;;;;;;17.40;100.00;101286.88;4931397;29;20063;-73
2023/07/11 01:52:22;;;;;;;13.98;5.25;;;;;;;17.36;100.00;101281.34;4924642;29;20048;-74
2023/07/11 01:54:50;;;;;;;11.85;4.95;;;;;;;17.39;100.00;101283.25;4927167;29;20055;-72
2023/07/11 01:57:18;;;;;;;16.27;7.53;;;;;;;17.41;100.00;101284.84;4929241;29;20052;-73
2023/07/11 01:59:44;;;;;;;11.45;5.35;;;;;;;17.33;100.00;101279.47;4931190;29;20134;-72
2023/07/11 02:02:11;;;;;;;13.85;5.30;;;;;;;17.31;100.00;101278.31;4930477;29;20110;-73
2023/07/11 02:04:38;;;;;;;14.25;6.20;;;;;;;17.25;100.00;101275.28;4930706;29;20485;-73
2023/07/11 02:07:06;;;;;;;14.73;5.82;;;;;;;17.22;100.00;101272.59;4929091;29;20064;-73
2023/07/11 02:09:33;;;;;;;13.68;5.78;;;;;;;17.20;100.00;101272.25;4930148;29;20047;-73
2023/07/11 02:11:59;;;;;;;13.88;6.70;;;;;;;17.15;100.00;101267.97;4931099;29;20051;-74
2023/07/11 02:14:26;;;;;;;11.65;5.55;;;;;;;17.13;100.00;101261.25;4931149;29;20087;-72
2023/07/11 02:16:53;;;;;;;13.15;5.85;;;;;;;17.09;100.00;101266.16;4931365;29;20132;-72
2023/07/11 02:19:22;;;;;;;16.17;5.65;;;;;;;17.05;100.00;101266.25;4930859;29;20048;-73
2023/07/11 02:21:49;;;;;;;13.77;6.05;;;;;;;17.03;100.00;101263.13;4931402;29;20518;-73
2023/07/11 02:24:17;;;;;;;14.95;5.40;;;;;;;17.00;100.00;101268.84;4928340;29;20057;-73
2023/07/11 02:26:47;;;;;;;14.70;5.65;;;;;;;16.98;100.00;101269.28;4926513;29;20052;-73
2023/07/11 02:29:14;;;;;;;14.10;5.68;;;;;;;16.96;100.00;101254.94;4931350;29;20044;-73
2023/07/11 02:31:41;;;;;;;11.68;6.15;;;;;;;16.96;100.00;101256.94;4930615;29;20630;-74
2023/07/11 02:34:09;;;;;;;12.95;6.00;;;;;;;16.94;100.00;101265.81;4931467;29;20055;-72
2023/07/11 02:36:35;;;;;;;12.65;5.75;;;;;;;16.91;100.00;101255.47;4930064;29;20352;-75
2023/07/11 02:39:02;;;;;;;13.73;5.90;;;;;;;16.87;100.00;101254.00;4930966;29;20059;-73
2023/07/11 02:41:29;;;;;;;12.57;5.68;;;;;;;16.81;100.00;101244.59;4930022;29;20130;-72
2023/07/11 02:43:56;;;;;;;11.45;5.90;;;;;;;16.82;100.00;101246.94;4930979;29;20056;-74
2023/07/11 02:46:23;;;;;;;13.45;6.05;;;;;;;16.80;100.00;101240.97;4929815;29;20083;-71
2023/07/11 02:48:50;;;;;;;12.43;5.88;;;;;;;16.80;100.00;101245.78;4930870;29;20059;-74
2023/07/11 02:51:17;;;;;;;13.48;6.15;;;;;;;16.76;100.00;101245.91;4932069;29;20154;-69
2023/07/11 02:53:44;;;;;;;11.88;5.88;;;;;;;16.75;100.00;101258.38;4934961;29;20150;-74
2023/07/11 02:56:11;;;;;;;12.05;5.90;;;;;;;16.73;100.00;101235.56;4933995;29;20187;-74
2023/07/11 02:58:38;;;;;;;12.82;5.85;;;;;;;16.69;100.00;101251.75;4933982;29;20059;-74
2023/07/11 03:01:04;;;;;;;19.25;6.13;;;;;;;16.65;100.00;101245.44;4934594;29;20040;-75
2023/07/11 03:03:31;;;;;;;14.82;6.03;;;;;;;16.66;100.00;101243.41;4934490;29;20077;-74
2023/07/11 03:05:58;;;;;;;13.32;5.88;;;;;;;16.65;100.00;101236.25;4932535;29;20142;-73
2023/07/11 03:08:25;;;;;;;9.63;5.50;;;;;;;16.63;100.00;101228.25;4934099;29;20052;-75
2023/07/11 03:10:51;;;;;;;14.45;5.75;;;;;;;16.62;100.00;101237.13;4934631;29;20135;-73
2023/07/11 03:13:18;;;;;;;13.82;6.20;;;;;;;16.62;100.00;101225.91;4933553;29;20052;-72
2023/07/11 03:15:45;;;;;;;11.30;5.50;;;;;;;16.62;100.00;101229.50;4932039;28;20335;-74
2023/07/11 03:18:13;;;;;;;12.90;6.22;;;;;;;16.62;100.00;101218.28;4927597;29;20090;-74
2023/07/11 03:20:41;;;;;;;14.43;5.90;;;;;;;16.60;100.00;101217.94;4933502;29;20047;-72
2023/07/11 03:23:10;;;;;;;13.05;6.00;;;;;;;16.58;100.00;101225.22;4934649;29;20114;-72
2023/07/11 03:25:36;;;;;;;16.15;6.20;;;;;;;16.58;100.00;101217.56;4929338;29;20599;-71
2023/07/11 03:28:04;;;;;;;18.65;6.28;;;;;;;16.54;100.00;101214.09;4937068;29;20056;-72
2023/07/11 03:30:32;;;;;;;14.45;5.68;;;;;;;16.47;100.00;101200.28;4932499;29;20101;-71
2023/07/11 03:32:58;;;;;;;13.35;6.13;;;;;;;16.50;100.00;101198.59;4924800;29;20056;-74
2023/07/11 03:35:25;;;;;;;15.43;5.82;;;;;;;16.52;100.00;101210.97;4928256;29;20066;-73
2023/07/11 03:37:51;;;;;;;12.85;5.80;;;;;;;16.48;100.00;101204.66;4930587;29;20106;-75
2023/07/11 03:40:18;;;;;;;12.05;5.75;;;;;;;16.49;100.00;101202.63;4932794;29;20553;-73
2023/07/11 03:42:44;;;;;;;13.63;5.93;;;;;;;16.48;100.00;101204.66;4932965;29;20110;-73
2023/07/11 03:45:11;;;;;;;14.52;6.18;;;;;;;16.48;100.00;101215.88;4933021;29;20059;-75
2023/07/11 03:47:38;;;;;;;12.23;5.53;;;;;;;16.49;100.00;101200.63;4933842;29;20511;-74
2023/07/11 03:50:05;;;;;;;16.85;5.93;;;;;;;16.49;100.00;101195.00;4934738;29;20059;-73
2023/07/11 03:52:31;;;;;;;15.45;6.65;;;;;;;16.48;100.00;101193.41;4933074;29;20058;-73
2023/07/11 03:54:58;;;;;;;16.23;6.10;;;;;;;16.50;100.00;101196.56;4933840;29;20107;-70
2023/07/11 03:57:24;;;;;;;14.60;6.00;;;;;;;16.53;100.00;101189.28;4933200;29;20466;-74
2023/07/11 03:59:52;;;;;;;11.05;6.10;;;;;;;16.52;100.00;101188.50;4933381;29;20047;-74
2023/07/11 04:02:18;;;;;;;15.63;6.20;;;;;;;16.55;100.00;101189.63;4929483;29;20514;-73
2023/07/11 04:04:45;;;;;;;14.82;6.00;;;;;;;16.58;100.00;101180.31;4932329;29;20129;-75
2023/07/11 04:07:11;;;;;;;12.88;5.47;;;;;;;16.59;100.00;101181.88;4932895;29;20114;-73
2023/07/11 04:09:42;;;;;;;12.05;5.78;;;;;;;16.59;100.00;101182.69;4947024;29;20067;-74
2023/07/11 04:12:09;;;;;;;15.27;5.72;;;;;;;16.61;100.00;101180.19;4930468;29;20039;-73
2023/07/11 04:14:36;;;;;;;14.68;6.50;;;;;;;16.62;100.00;101170.56;4924564;29;20054;-73
2023/07/11 04:17:03;;;;;;;13.48;5.93;;;;;;;16.61;100.00;101171.78;4933096;29;20078;-73
2023/07/11 04:19:29;;;;;;;13.23;5.75;;;;;;;16.63;100.00;101176.94;4933083;29;20059;-72
2023/07/11 04:21:56;;;;;;;13.93;5.32;;;;;;;16.67;100.00;101172.00;4932354;29;20075;-73
2023/07/11 04:24:22;;;;;;;13.00;5.05;;;;;;;16.69;100.00;101166.72;4932247;29;20510;-74
2023/07/11 04:26:49;;;;;;;16.00;5.45;;;;;;;16.75;100.00;101171.31;4932940;29;20058;-71
2023/07/11 04:29:16;;;;;;;13.85;5.90;;;;;;;16.76;100.00;101163.69;4933185;29;20470;-73
2023/07/11 04:31:42;;;;;;;11.05;4.65;;;;;;;16.84;100.00;101170.66;4930062;29;20131;-75
2023/07/11 04:34:09;;;;;;;11.90;4.95;;;;;;;16.87;100.00;101170.56;4932497;29;20107;-74
2023/07/11 04:36:35;;;;;;;14.30;5.43;;;;;;;16.95;100.00;101166.25;4925112;29;20055;-73
2023/07/11 04:39:03;;;;;;;12.57;4.25;;;;;;;17.04;100.00;101163.56;4931815;29;20063;-74
2023/07/11 04:41:29;;;;;;;13.80;4.15;;;;;;;17.19;100.00;101164.69;4930196;29;20054;-74
2023/07/11 04:43:56;;;;;;;8.27;3.22;;;;;;;17.40;100.00;101149.16;4932568;29;20459;-73
2023/07/11 04:46:22;;;;;;;11.35;3.70;;;;;;;17.68;100.00;101147.38;4932639;29;20051;-73
2023/07/11 04:48:49;;;;;;;6.10;2.97;;;;;;;17.90;100.00;101159.41;4933286;29;20055;-72
2023/07/11 04:51:16;;;;;;;15.05;3.92;;;;;;;18.00;100.00;101138.56;4931299;29;20055;-72
2023/07/11 04:53:43;;;;;;;6.80;3.20;;;;;;;18.23;100.00;101150.13;4930711;29;20115;-73
2023/07/11 04:56:10;;;;;;;9.27;3.15;;;;;;;18.32;100.00;101133.31;4931882;29;20056;-72
2023/07/11 04:58:38;;;;;;;7.95;2.88;;;;;;;18.56;100.00;101136.41;4932951;29;20048;-72
2023/07/11 05:01:12;;;;;;;12.35;4.28;;;;;;;18.69;100.00;101135.03;4931516;29;20114;-72
2023/07/11 05:03:39;;;;;;;8.17;3.00;;;;;;;18.80;100.00;101132.59;4931350;29;20052;-72
2023/07/11 05:06:07;;;;;;;8.30;2.95;;;;;;;18.91;100.00;101137.81;4932046;29;20355;-72
2023/07/11 05:08:34;;;;;;;11.50;3.47;;;;;;;18.98;100.00;101129.88;4932508;29;20063;-72
2023/07/11 05:11:07;;;;;;;13.23;3.00;;;;;;;19.09;100.00;101123.78;4931645;29;20158;-75
2023/07/11 05:13:35;;;;;;;11.15;3.13;;;;;;;19.23;100.00;101128.81;4932142;29;20561;-74
2023/07/11 05:16:04;;;;;;;6.93;3.30;;;;;;;19.30;100.00;101120.03;4930541;29;20070;-70
2023/07/11 05:18:31;;;;;;;7.43;2.70;;;;;;;19.40;100.00;101118.81;4931982;29;20048;-72
2023/07/11 05:20:58;;;;;;;7.75;3.10;;;;;;;19.47;100.00;101112.84;4930656;29;20126;-71
2023/07/11 05:23:27;;;;;;;8.50;3.00;;;;;;;19.64;100.00;101111.31;4932299;29;20087;-71
2023/07/11 05:25:54;;;;;;;8.55;2.95;;;;;;;19.73;100.00;101111.31;4932090;29;20052;-72
2023/07/11 05:28:22;;;;;;;8.20;3.00;;;;;;;19.81;100.00;101109.75;4932106;29;20127;-71
2023/07/11 05:30:48;;;;;;;9.00;2.85;;;;;;;19.93;100.00;101103.16;4926072;29;20127;-71
2023/07/11 05:33:15;;;;;;;8.75;2.90;;;;;;;19.96;100.00;101096.56;4931107;29;20071;-72
2023/07/11 05:35:51;;;;;;;10.65;3.13;;;;;;;20.11;100.00;101108.00;4931950;29;20052;-72
2023/07/11 05:38:17;;;;;;;9.00;2.85;;;;;;;20.24;100.00;101094.47;4932045;29;20059;-72
2023/07/11 05:40:44;;;;;;;12.20;3.50;;;;;;;20.28;100.00;101092.28;4930749;29;20502;-71
2023/07/11 05:43:10;;;;;;;11.00;3.22;;;;;;;20.34;100.00;101088.34;4931869;29;20083;-75
2023/07/11 05:45:37;;;;;;;7.30;2.83;;;;;;;20.44;100.00;101091.91;4928832;29;20118;-72
2023/07/11 05:48:03;;;;;;;10.73;3.13;;;;;;;20.49;100.00;101077.16;4929030;28;20075;-71
2023/07/11 05:50:30;;;;;;;8.30;3.03;;;;;;;20.54;100.00;101080.09;4931708;29;20055;-71
2023/07/11 05:52:57;;;;;;;10.18;2.83;;;;;;;20.58;100.00;101086.34;4929998;29;20059;-72
2023/07/11 05:55:23;;;;;;;14.18;3.20;;;;;;;20.68;100.00;101082.22;4930151;29;20059;-71
2023/07/11 05:57:50;;;;;;;7.65;2.60;;;;;;;20.72;100.00;101080.00;4927430;29;20055;-71
2023/07/11 06:00:17;;;;;;;8.88;3.08;;;;;;;20.75;100.00;101076.22;4931217;29;20079;-70
2023/07/11 06:02:43;;;;;;;9.85;3.35;;;;;;;20.91;100.00;101084.31;4927223;29;20071;-73
2023/07/11 06:05:10;;;;;;;9.45;3.22;;;;;;;20.97;100.00;101076.75;4928352;29;20055;-74
2023/07/11 06:07:36;;;;;;;6.18;2.50;;;;;;;21.07;100.00;101069.00;4918364;29;20095;-72
2023/07/11 06:10:03;;;;;;;12.60;4.15;;;;;;;21.16;100.00;101064.06;4929841;29;20063;-74
2023/07/11 06:12:30;;;;;;;9.15;3.08;;;;;;;21.19;100.00;101059.47;4929437;29;20055;-73
2023/07/11 06:14:56;;;;;;;7.82;2.50;;;;;;;21.28;100.00;101062.22;4930689;29;20511;-71
2023/07/11 06:17:23;;;;;;;8.80;3.10;;;;;;;21.43;100.00;101061.00;4927261;29;20434;-72
2023/07/11 06:19:50;;;;;;;5.75;2.75;;;;;;;21.40;100.00;101061.97;4927832;29;20138;-73
2023/07/11 06:22:16;;;;;;;7.03;2.70;;;;;;;21.53;100.00;101059.66;4929087;29;20055;-72
2023/07/11 06:24:43;;;;;;;8.48;3.05;;;;;;;21.51;100.00;101050.09;4926646;29;20064;-74
2023/07/11 06:27:10;;;;;;;6.57;2.47;;;;;;;21.55;100.00;101047.88;4927165;29;20411;-72
2023/07/11 06:29:36;;;;;;;9.75;2.95;;;;;;;21.68;100.00;101043.53;4926912;29;20047;-73
2023/07/11 06:32:03;;;;;;;5.22;2.42;;;;;;;21.81;100.00;101051.72;4930338;29;20058;-72
2023/07/11 06:34:30;;;;;;;7.00;2.72;;;;;;;21.87;100.00;101058.25;4930049;29;20051;-71
2023/07/11 06:36:56;;;;;;;5.72;2.78;;;;;;;21.87;100.00;101050.56;4930288;29;20059;-65
2023/07/11 06:39:23;;;;;;;7.28;2.67;;;;;;;21.98;100.00;101045.09;4928287;29;20146;-70
2023/07/11 06:41:50;;;;;;;10.35;2.70;;;;;;;21.99;100.00;101049.50;4929165;29;20051;-74
2023/07/11 06:44:16;;;;;;;9.18;2.65;;;;;;;22.12;100.00;101043.53;4930561;29;20051;-75
2023/07/11 06:46:43;;;;;;;6.45;2.45;;;;;;;22.14;100.00;101050.25;4945237;29;20060;-75
2023/07/11 06:49:09;;;;;;;1.75;0.98;;;;;;;22.14;100.00;101038.13;4929502;29;20098;-74
2023/07/11 06:51:36;;;;;;;13.57;3.20;;;;;;;22.38;100.00;101043.72;4924086;29;20107;-75
2023/07/11 06:54:03;;;;;;;6.18;2.70;;;;;;;22.45;100.00;101031.97;4930749;29;20072;-73
2023/07/11 06:56:29;;;;;;;7.10;2.70;;;;;;;22.47;100.00;101026.59;4928203;29;20055;-74
2023/07/11 06:58:56;;;;;;;9.55;3.10;;;;;;;22.50;100.00;101025.59;4929498;29;20154;-75
2023/07/11 07:01:22;;;;;;;7.10;2.83;;;;;;;22.53;100.00;101025.41;4929570;29;20060;-74
2023/07/11 07:04:03;;;;;;;7.95;2.53;;;;;;;22.59;100.00;101025.47;4931107;29;20063;-77
2023/07/11 07:06:31;;;;;;;5.75;2.28;;;;;;;22.72;100.00;101026.72;4930217;29;20052;-76
2023/07/11 07:09:00;;;;;;;8.60;3.55;;;;;;;22.72;100.00;101028.75;4929364;29;20062;-74
2023/07/11 07:11:26;;;;;;;8.65;3.35;;;;;;;22.79;100.00;101022.69;4927724;29;20476;-74
2023/07/11 07:13:53;;;;;;;11.95;3.00;;;;;;;22.83;100.00;101020.41;4925290;29;20058;-74
2023/07/11 07:16:33;;;;;;;7.30;2.40;;;;;;;22.93;100.00;101021.84;4925811;29;20056;-72
2023/07/11 07:19:01;;;;;;;1.33;0.73;;;;;;;22.98;100.00;101010.59;4928872;29;20481;-70
2023/07/11 07:21:27;;;;;;;7.25;2.72;;;;;;;23.17;100.00;101019.59;4930570;29;20056;-71
2023/07/11 07:23:54;;;;;;;6.60;2.85;;;;;;;23.19;100.00;101014.22;4930140;29;20090;-74
2023/07/11 07:26:20;;;;;;;6.38;2.67;;;;;;;23.25;100.00;101012.22;4928949;29;20481;-77
2023/07/11 07:28:47;;;;;;;8.18;2.85;;;;;;;23.35;100.00;101027.78;4929657;29;20123;-75
2023/07/11 07:31:14;;;;;;;8.88;2.53;;;;;;;23.48;100.00;101011.97;4929220;29;20106;-75
2023/07/11 07:33:41;;;;;;;8.18;3.40;;;;;;;23.47;100.00;101018.13;4923213;29;20047;-75
2023/07/11 07:36:10;;;;;;;10.13;2.60;;;;;;;23.53;100.00;101014.06;4930425;29;20064;-74
2023/07/11 07:38:38;;;;;;;7.30;2.67;;;;;;;23.73;100.00;101010.44;4932423;29;20502;-75
2023/07/11 07:41:09;;;;;;;9.20;3.03;;;;;;;23.74;100.00;101009.16;4931487;29;20059;-75
2023/07/11 07:43:39;;;;;;;7.60;2.85;;;;;;;23.85;100.00;101012.09;4926841;29;20040;-74
2023/07/11 07:46:06;;;;;;;9.40;3.67;;;;;;;23.96;100.00;101006.50;4932590;29;20086;-75
2023/07/11 07:48:34;;;;;;;9.20;3.45;;;;;;;24.02;100.00;100998.81;4929933;29;20482;-76
2023/07/11 07:51:06;;;;;;;5.93;2.78;;;;;;;23.99;100.00;100997.75;4945490;29;20103;-76
2023/07/11 07:53:34;;;;;;;10.88;2.55;;;;;;;24.05;100.00;101001.44;4931114;29;20046;-75
2023/07/11 07:56:12;;;;;;;7.82;2.85;;;;;;;24.05;100.00;100992.13;4927494;29;20085;-76
2023/07/11 07:58:39;;;;;;;7.88;2.83;;;;;;;24.25;100.00;100992.06;4930424;29;20107;-76
2023/07/11 08:01:11;;;;;;;7.65;2.72;;;;;;;24.31;100.00;100987.94;4929700;29;20047;-76
2023/07/11 08:03:38;;;;;;;9.90;2.17;;;;;;;24.40;100.00;100986.97;4929820;29;20425;-74
2023/07/11 08:06:06;;;;;;;4.05;1.90;;;;;;;24.44;100.00;100987.53;4929442;29;20059;-75
2023/07/11 08:08:35;;;;;;;3.90;1.33;;;;;;;24.41;100.00;100985.72;4892698;29;20528;-74
2023/07/11 08:11:04;;;;;;;8.48;2.58;;;;;;;24.52;100.00;100984.97;4886419;29;20196;-76
2023/07/11 08:13:34;;;;;;;9.75;3.33;;;;;;;24.60;100.00;100975.47;4890043;29;20049;-74
2023/07/11 08:16:19;;;;;;;6.60;2.58;;;;;;;24.68;100.00;100976.56;4891742;29;20408;-74
2023/07/11 08:18:48;;;;;;;9.38;2.70;;;;;;;24.85;100.00;100977.44;4855389;29;20390;-75
2023/07/11 08:21:15;;;;;;;7.72;2.58;;;;;;;24.82;100.00;100975.59;4838835;29;20059;-77
2023/07/11 08:23:41;;;;;;;3.78;1.52;;;;;;;24.73;100.00;100978.63;4854351;29;20053;-75
2023/07/11 08:26:09;;;;;;;8.88;3.10;;;;;;;24.90;100.00;100976.69;4863487;29;20066;-76
2023/07/11 08:28:36;;;;;;;2.38;0.93;;;;;;;24.87;100.00;100974.09;4886260;29;20053;-73
2023/07/11 08:31:04;;;;;;;5.13;1.98;;;;;;;24.96;100.00;100968.97;4888165;29;20084;-76
2023/07/11 08:33:31;;;;;;;8.70;2.70;;;;;;;25.10;100.00;100962.28;4889381;29;20048;-73
2023/07/11 08:35:59;;;;;;;12.18;2.88;;;;;;;25.21;100.00;100965.16;4893885;29;20060;-72
2023/07/11 08:38:25;;;;;;;7.75;2.75;;;;;;;25.30;100.00;100967.78;4932240;29;20144;-75
2023/07/11 08:40:52;;;;;;;9.45;3.05;;;;;;;25.43;100.00;100965.22;4930540;29;20103;-75
2023/07/11 08:43:28;;;;;;;8.65;3.00;;;;;;;25.46;100.00;100954.88;4933024;29;20048;-76
2023/07/11 08:46:05;;;;;;;2.42;1.38;;;;;;;25.40;100.00;100954.06;4930937;29;20059;-76
2023/07/11 08:48:50;;;;;;;6.20;2.42;;;;;;;25.60;100.00;100946.13;4925352;29;20047;-77
2023/07/11 08:51:37;;;;;;;6.93;2.60;;;;;;;25.74;100.00;100941.44;4930130;29;20052;-74
2023/07/11 08:54:13;;;;;;;10.77;2.13;;;;;;;25.74;100.00;100950.78;4930652;29;20434;-75
2023/07/11 08:56:43;;;;;;;7.72;2.60;;;;;;;25.80;100.00;100939.38;4931678;29;20051;-76
2023/07/11 08:59:25;;;;;;;1.58;0.82;;;;;;;25.67;100.00;100939.91;4931736;29;20063;-75
2023/07/11 09:02:10;;;;;;;3.72;1.63;;;;;;;25.88;100.00;100941.19;4925215;29;20506;-76
2023/07/11 09:04:47;;;;;;;10.65;2.85;;;;;;;25.78;100.00;100939.13;4930637;29;20498;-73
2023/07/11 09:07:28;;;;;;;4.97;2.03;;;;;;;25.63;100.00;100938.59;4931362;29;20426;-75
2023/07/11 09:09:56;;;;;;;8.65;2.30;;;;;;;25.64;100.00;100932.41;4930149;29;20099;-74
2023/07/11 09:12:44;;;;;;;7.30;2.78;;;;;;;25.74;100.00;100935.75;4929941;29;20056;-74
2023/07/11 09:15:21;;;;;;;6.28;2.33;;;;;;;25.57;100.00;100932.13;4930060;29;20426;-73
2023/07/11 09:18:09;;;;;;;5.38;1.58;;;;;;;25.64;100.00;100929.53;4923725;29;20143;-73
2023/07/11 09:20:56;;;;;;;5.20;1.92;;;;;;;25.58;100.00;100928.75;4924644;29;20059;-72
2023/07/11 09:24:07;;;;;;;14.10;3.53;;;;;;;25.79;100.00;100920.75;4923373;29;20059;-73
2023/07/11 09:26:47;;;;;;;5.85;2.05;;;;;;;25.79;100.00;100921.50;4888527;29;20574;-73
2023/07/11 09:29:16;;;;;;;9.30;3.47;;;;;;;25.74;100.00;100922.31;4890041;29;20056;-77
2023/07/11 09:31:51;;;;;;;4.38;1.30;;;;;;;25.81;100.00;100907.53;4882053;29;20064;-76
2023/07/11 09:34:24;;;;;;;8.25;3.42;;;;;;;26.07;100.00;100908.06;4890727;29;20076;-74
2023/07/11 09:36:54;;;;;;;6.68;2.50;;;;;;;26.06;100.00;100912.19;4891452;29;20056;-73
2023/07/11 09:39:57;;;;;;;9.05;2.13;;;;;;;26.07;100.00;100908.06;4891149;29;20088;-72
2023/07/11 09:42:48;;;;;;;8.50;2.22;;;;;;;26.37;100.00;100905.41;4880277;29;20061;-74
2023/07/11 09:45:17;;;;;;;1.77;1.42;;;;;;;26.41;100.00;100900.97;4917052;29;20158;-74
2023/07/11 09:47:52;;;;;;;9.68;2.33;;;;;;;26.62;100.00;100901.44;4931470;29;20060;-73
2023/07/11 09:50:54;;;;;;;3.17;1.17;;;;;;;26.83;100.00;100902.63;4926801;29;20822;-74
2023/07/11 09:53:41;;;;;;;10.38;2.65;;;;;;;26.69;100.00;100889.47;4926623;29;20043;-74
2023/07/11 09:56:14;;;;;;;7.93;2.75;;;;;;;26.90;100.00;100893.53;4930644;29;20502;-73
2023/07/11 09:59:10;;;;;;;4.00;1.80;;;;;;;26.90;100.00;100887.84;4917229;29;20048;-73
2023/07/11 10:01:37;;;;;;;3.10;1.23;;;;;;;26.82;100.00;100889.69;4928359;29;20048;-72
2023/07/11 10:04:15;;;;;;;6.95;2.03;;;;;;;26.97;100.00;100886.50;4930658;29;20052;-74
2023/07/11 10:06:52;;;;;;;2.97;1.40;;;;;;;26.95;100.00;100889.09;4928665;29;20043;-74
2023/07/11 10:09:28;;;;;;;9.52;2.65;;;;;;;26.88;100.00;100875.38;4929937;29;20067;-76
2023/07/11 10:11:59;;;;;;;2.35;0.85;;;;;;;26.75;100.00;100884.53;4930023;29;20071;-75
2023/07/11 10:14:33;;;;;;;9.90;3.05;;;;;;;27.08;100.00;100875.78;4929601;29;20051;-76
2023/07/11 10:17:28;;;;;;;11.80;2.80;;;;;;;27.03;100.00;100878.69;4929457;29;20585;-77
2023/07/11 10:20:01;;;;;;;7.75;2.67;;;;;;;27.22;100.00;100860.41;4929739;29;20051;-75
2023/07/11 10:22:47;;;;;;;12.38;2.78;;;;;;;27.34;100.00;100866.81;4931377;29;20408;-77
2023/07/11 10:25:16;;;;;;;7.63;2.60;;;;;;;27.52;100.00;100858.34;4929816;29;20381;-77
2023/07/11 10:27:50;;;;;;;14.60;3.55;;;;;;;27.86;100.00;100858.84;4925965;29;20514;-75
2023/07/11 10:30:25;;;;;;;10.30;3.03;;;;;;;28.12;100.00;100856.25;4931188;29;20052;-76
2023/07/11 10:33:02;;;;;;;8.00;2.42;;;;;;;28.07;100.00;100851.34;4930127;29;20163;-76
2023/07/11 10:35:54;;;;;;;6.40;2.40;;;;;;;27.88;100.00;100847.66;4924180;29;20055;-77
2023/07/11 10:38:28;;;;;;;9.30;3.03;;;;;;;28.12;100.00;100842.72;4930167;29;20598;-76
2023/07/11 10:40:58;;;;;;;11.75;2.83;;;;;;;28.17;100.00;100844.75;4929213;29;20071;-74
2023/07/11 10:43:37;;;;;;;8.23;3.03;;;;;;;28.22;100.00;100829.59;4922822;29;20116;-77
2023/07/11 10:46:37;;;;;;;6.03;1.38;;;;;;;28.10;100.00;100850.28;4930851;29;20055;-76
2023/07/11 10:49:09;;;;;;;10.48;3.05;;;;;;;28.21;100.00;100848.06;4926410;29;20087;-75
2023/07/11 10:51:41;;;;;;;5.80;2.17;;;;;;;28.17;100.00;100844.75;4930612;29;20054;-75
2023/07/11 10:54:20;;;;;;;10.18;2.80;;;;;;;28.19;100.00;100847.06;4921903;29;20056;-76
2023/07/11 10:56:51;;;;;;;9.38;2.50;;;;;;;28.31;100.00;100837.84;4910649;29;20192;-76
2023/07/11 10:59:22;;;;;;;8.35;2.63;;;;;;;28.05;100.00;100839.69;4927650;29;20106;-76
2023/07/11 11:01:55;;;;;;;8.35;2.13;;;;;;;28.09;100.00;100849.53;4927107;29;20103;-77
2023/07/11 11:05:19;;;;;;;10.52;2.55;;;;;;;28.31;100.00;100837.84;4924735;29;20071;-75
2023/07/11 11:07:51;;;;;;;9.52;2.85;;;;;;;28.73;100.00;100821.97;4883251;29;20099;-76
2023/07/11 11:10:41;;;;;;;9.23;2.45;;;;;;;28.47;100.00;100816.84;4885126;29;20092;-75
2023/07/11 11:13:13;;;;;;;8.95;2.33;;;;;;;28.57;100.00;100820.09;4885682;29;20053;-74
2023/07/11 11:15:49;;;;;;;6.20;2.58;;;;;;;28.50;100.00;100815.78;4889794;29;20713;-75
2023/07/11 11:18:54;;;;;;;8.55;2.55;;;;;;;28.65;100.00;100807.50;4885715;29;20105;-76
2023/07/11 11:21:25;;;;;;;8.35;2.20;;;;;;;28.48;100.00;100806.94;4890237;29;20127;-75
2023/07/11 11:24:08;;;;;;;11.68;3.15;;;;;;;28.59;100.00;100806.03;4875986;29;20116;-76
2023/07/11 11:26:46;;;;;;;10.00;2.57;;;;;;;28.63;100.00;100810.13;4873680;29;20087;-76